Pagrindinis puslapis
METAR-TAF:

METAR-TAF

Oro uostai :

Nakashibetsu, Japonija

platuma: 43-34N, ilguma: 144-58E, Aukštis: 66 m

Dabartinis oras

Ataskaita buvo paskelbta 3 valandos ir 38 minutes, ne 09:00 UTC
Vėjas 1 kt nuo kintamojo kryptimis
Temperatūra -7°C
Drėgmė 57%
Slėgis 1020 hPa
Matomumas 10 km arba daugiau
Mažai debesys ne aukštis 3000 ft

METAR: RJCN 250900Z VRB01KT 9999 FEW030 M07/M14 Q1020

Laikas: 21:38 (12:38 UTC)


TAF: trūkstamas

Orai ataskaitas ir orų prognozės (METAR, TAF).

turimą stotys yra geltonos ir raudonos taškus žemėlapyje.

Perkelti pele per norėdami pamatyti stoties vardą.

Tada spustelėkite, norėdami matyti oro stebėjimo ir prognozės.

Norėdami pakeisti žemėlapį: spustelėkite ant žalios mygtukų su juodo kryžiaus žemyn,; žalią mygtuką su brūkšneliu, jei norite nutolinti; arba žalių rodyklių gretimoms žemėlapius.


METAR-TAF: